sensor_id;sensor_type;location;lat;lon;timestamp;temperature;humidity
66096;SHT31;53861;53.422;14.530;2023-02-01T00:02:21;3.01;89.17
66096;SHT31;53861;53.422;14.530;2023-02-01T00:04:48;3.01;90.05
66096;SHT31;53861;53.422;14.530;2023-02-01T00:07:15;3.07;88.74
66096;SHT31;53861;53.422;14.530;2023-02-01T00:09:42;3.07;88.57
66096;SHT31;53861;53.422;14.530;2023-02-01T00:12:10;3.05;89.30
66096;SHT31;53861;53.422;14.530;2023-02-01T00:14:37;3.10;89.09
66096;SHT31;53861;53.422;14.530;2023-02-01T00:17:06;3.24;88.58
66096;SHT31;53861;53.422;14.530;2023-02-01T00:19:36;3.31;88.38
66096;SHT31;53861;53.422;14.530;2023-02-01T00:22:03;3.35;88.69
66096;SHT31;53861;53.422;14.530;2023-02-01T00:24:35;3.46;88.39
66096;SHT31;53861;53.422;14.530;2023-02-01T00:27:02;3.49;88.31
66096;SHT31;53861;53.422;14.530;2023-02-01T00:29:32;3.51;90.08
66096;SHT31;53861;53.422;14.530;2023-02-01T00:32:00;3.56;88.41
66096;SHT31;53861;53.422;14.530;2023-02-01T00:34:27;3.56;88.12
66096;SHT31;53861;53.422;14.530;2023-02-01T00:36:54;3.59;88.32
66096;SHT31;53861;53.422;14.530;2023-02-01T00:39:22;3.49;88.59
66096;SHT31;53861;53.422;14.530;2023-02-01T00:41:49;3.41;88.86
66096;SHT31;53861;53.422;14.530;2023-02-01T00:44:20;3.41;88.58
66096;SHT31;53861;53.422;14.530;2023-02-01T00:46:48;3.38;88.67
66096;SHT31;53861;53.422;14.530;2023-02-01T00:49:16;3.29;88.40
66096;SHT31;53861;53.422;14.530;2023-02-01T00:51:43;3.34;88.51
66096;SHT31;53861;53.422;14.530;2023-02-01T00:54:13;3.35;88.21
66096;SHT31;53861;53.422;14.530;2023-02-01T00:56:41;3.29;88.98
66096;SHT31;53861;53.422;14.530;2023-02-01T00:59:10;3.31;88.37
66096;SHT31;53861;53.422;14.530;2023-02-01T01:01:37;3.32;88.25
66096;SHT31;53861;53.422;14.530;2023-02-01T01:04:05;3.24;89.52
66096;SHT31;53861;53.422;14.530;2023-02-01T01:06:32;3.22;89.14
66096;SHT31;53861;53.422;14.530;2023-02-01T01:09:01;3.21;89.06
66096;SHT31;53861;53.422;14.530;2023-02-01T01:11:30;3.27;88.45
66096;SHT31;53861;53.422;14.530;2023-02-01T01:13:58;3.27;89.50
66096;SHT31;53861;53.422;14.530;2023-02-01T01:16:29;3.22;88.77
66096;SHT31;53861;53.422;14.530;2023-02-01T01:18:56;3.12;89.01
66096;SHT31;53861;53.422;14.530;2023-02-01T01:21:27;3.05;89.75
66096;SHT31;53861;53.422;14.530;2023-02-01T01:23:54;3.10;90.21
66096;SHT31;53861;53.422;14.530;2023-02-01T01:26:22;3.08;90.15
66096;SHT31;53861;53.422;14.530;2023-02-01T01:28:50;3.10;90.66
66096;SHT31;53861;53.422;14.530;2023-02-01T01:31:18;3.07;89.95
66096;SHT31;53861;53.422;14.530;2023-02-01T01:33:48;3.12;89.96
66096;SHT31;53861;53.422;14.530;2023-02-01T01:36:18;3.15;89.41
66096;SHT31;53861;53.422;14.530;2023-02-01T01:38:47;3.21;90.60
66096;SHT31;53861;53.422;14.530;2023-02-01T01:41:16;3.25;89.69
66096;SHT31;53861;53.422;14.530;2023-02-01T01:44:55;3.29;89.25
66096;SHT31;53861;53.422;14.530;2023-02-01T01:46:49;3.32;89.44
66096;SHT31;53861;53.422;14.530;2023-02-01T01:49:16;3.31;88.89
66096;SHT31;53861;53.422;14.530;2023-02-01T01:51:46;3.29;88.82
66096;SHT31;53861;53.422;14.530;2023-02-01T01:54:16;3.32;89.39
66096;SHT31;53861;53.422;14.530;2023-02-01T01:56:46;3.29;89.02
66096;SHT31;53861;53.422;14.530;2023-02-01T01:59:20;3.28;89.46
66096;SHT31;53861;53.422;14.530;2023-02-01T02:01:50;3.35;89.14
66096;SHT31;53861;53.422;14.530;2023-02-01T02:04:18;3.39;88.31
66096;SHT31;53861;53.422;14.530;2023-02-01T02:06:47;3.39;89.77
66096;SHT31;53861;53.422;14.530;2023-02-01T02:09:16;3.36;89.28
66096;SHT31;53861;53.422;14.530;2023-02-01T02:11:43;3.29;88.84
66096;SHT31;53861;53.422;14.530;2023-02-01T02:14:11;3.29;89.14
66096;SHT31;53861;53.422;14.530;2023-02-01T02:16:48;3.27;88.98
66096;SHT31;53861;53.422;14.530;2023-02-01T02:19:31;3.29;89.78
66096;SHT31;53861;53.422;14.530;2023-02-01T02:22:05;3.25;89.03
66096;SHT31;53861;53.422;14.530;2023-02-01T02:24:45;3.24;88.97
66096;SHT31;53861;53.422;14.530;2023-02-01T02:27:20;3.25;89.01
66096;SHT31;53861;53.422;14.530;2023-02-01T02:35:38;3.32;89.87
66096;SHT31;53861;53.422;14.530;2023-02-01T02:38:11;3.49;88.33
66096;SHT31;53861;53.422;14.530;2023-02-01T02:40:42;3.58;88.69
66096;SHT31;53861;53.422;14.530;2023-02-01T02:43:13;3.63;87.60
66096;SHT31;53861;53.422;14.530;2023-02-01T02:46:00;3.54;88.39
66096;SHT31;53861;53.422;14.530;2023-02-01T02:48:55;3.48;88.21
66096;SHT31;53861;53.422;14.530;2023-02-01T02:51:28;3.46;87.69
66096;SHT31;53861;53.422;14.530;2023-02-01T02:54:15;3.45;87.77
66096;SHT31;53861;53.422;14.530;2023-02-01T02:56:59;3.46;88.38
66096;SHT31;53861;53.422;14.530;2023-02-01T02:59:45;3.54;88.54
66096;SHT31;53861;53.422;14.530;2023-02-01T03:02:31;3.51;88.01
66096;SHT31;53861;53.422;14.530;2023-02-01T03:05:16;3.54;88.31
66096;SHT31;53861;53.422;14.530;2023-02-01T03:07:55;3.48;88.57
66096;SHT31;53861;53.422;14.530;2023-02-01T03:10:24;3.43;88.25
66096;SHT31;53861;53.422;14.530;2023-02-01T03:12:54;3.36;88.81
66096;SHT31;53861;53.422;14.530;2023-02-01T03:15:24;3.31;89.24
66096;SHT31;53861;53.422;14.530;2023-02-01T03:17:56;3.35;89.29
66096;SHT31;53861;53.422;14.530;2023-02-01T03:20:24;3.42;88.94
66096;SHT31;53861;53.422;14.530;2023-02-01T03:22:55;3.38;88.72
66096;SHT31;53861;53.422;14.530;2023-02-01T03:25:28;3.46;89.01
66096;SHT31;53861;53.422;14.530;2023-02-01T03:27:58;3.58;88.29
66096;SHT31;53861;53.422;14.530;2023-02-01T03:30:28;3.58;88.78
66096;SHT31;53861;53.422;14.530;2023-02-01T03:32:56;3.69;88.44
66096;SHT31;53861;53.422;14.530;2023-02-01T03:35:27;3.72;88.40
66096;SHT31;53861;53.422;14.530;2023-02-01T03:37:56;3.72;87.62
66096;SHT31;53861;53.422;14.530;2023-02-01T03:40:32;3.69;87.73
66096;SHT31;53861;53.422;14.530;2023-02-01T03:43:01;3.65;88.24
66096;SHT31;53861;53.422;14.530;2023-02-01T03:45:32;3.63;88.97
66096;SHT31;53861;53.422;14.530;2023-02-01T03:48:01;3.65;88.11
66096;SHT31;53861;53.422;14.530;2023-02-01T03:50:29;3.69;88.81
66096;SHT31;53861;53.422;14.530;2023-02-01T03:52:58;3.73;87.74
66096;SHT31;53861;53.422;14.530;2023-02-01T03:55:26;3.68;87.27
66096;SHT31;53861;53.422;14.530;2023-02-01T03:57:57;3.52;88.30
66096;SHT31;53861;53.422;14.530;2023-02-01T04:00:26;3.48;88.71
66096;SHT31;53861;53.422;14.530;2023-02-01T04:02:53;3.41;87.84
66096;SHT31;53861;53.422;14.530;2023-02-01T04:05:23;3.41;88.52
66096;SHT31;53861;53.422;14.530;2023-02-01T04:07:50;3.42;88.16
66096;SHT31;53861;53.422;14.530;2023-02-01T04:10:18;3.41;88.28
66096;SHT31;53861;53.422;14.530;2023-02-01T04:12:45;3.27;88.48
66096;SHT31;53861;53.422;14.530;2023-02-01T04:15:16;3.31;89.28
66096;SHT31;53861;53.422;14.530;2023-02-01T04:17:46;3.29;89.85
66096;SHT31;53861;53.422;14.530;2023-02-01T04:20:13;3.34;89.69
66096;SHT31;53861;53.422;14.530;2023-02-01T04:22:46;3.46;89.95
66096;SHT31;53861;53.422;14.530;2023-02-01T04:25:15;3.43;89.68
66096;SHT31;53861;53.422;14.530;2023-02-01T04:27:44;3.46;89.21
66096;SHT31;53861;53.422;14.530;2023-02-01T04:30:12;3.56;88.66
66096;SHT31;53861;53.422;14.530;2023-02-01T04:32:41;3.63;89.23
66096;SHT31;53861;53.422;14.530;2023-02-01T04:35:08;3.56;88.99
66096;SHT31;53861;53.422;14.530;2023-02-01T04:37:40;3.63;88.89
66096;SHT31;53861;53.422;14.530;2023-02-01T04:40:08;3.69;88.24
66096;SHT31;53861;53.422;14.530;2023-02-01T04:42:35;3.75;88.09
66096;SHT31;53861;53.422;14.530;2023-02-01T04:45:02;3.68;88.55
66096;SHT31;53861;53.422;14.530;2023-02-01T04:47:29;3.76;88.74
66096;SHT31;53861;53.422;14.530;2023-02-01T04:49:58;3.82;87.74
66096;SHT31;53861;53.422;14.530;2023-02-01T04:52:27;3.85;87.99
66096;SHT31;53861;53.422;14.530;2023-02-01T04:54:56;3.78;88.31
66096;SHT31;53861;53.422;14.530;2023-02-01T04:57:25;3.66;88.32
66096;SHT31;53861;53.422;14.530;2023-02-01T04:59:52;3.63;88.58
66096;SHT31;53861;53.422;14.530;2023-02-01T05:02:19;3.58;88.67
66096;SHT31;53861;53.422;14.530;2023-02-01T05:04:46;3.48;88.42
66096;SHT31;53861;53.422;14.530;2023-02-01T05:07:15;3.46;89.11
66096;SHT31;53861;53.422;14.530;2023-02-01T05:09:44;3.41;89.28
66096;SHT31;53861;53.422;14.530;2023-02-01T05:12:11;3.34;89.06
66096;SHT31;53861;53.422;14.530;2023-02-01T05:14:55;3.17;89.96
66096;SHT31;53861;53.422;14.530;2023-02-01T05:17:22;3.12;90.19
66096;SHT31;53861;53.422;14.530;2023-02-01T05:19:49;3.05;90.37
66096;SHT31;53861;53.422;14.530;2023-02-01T05:22:18;3.01;90.72
66096;SHT31;53861;53.422;14.530;2023-02-01T05:24:51;2.97;91.39
66096;SHT31;53861;53.422;14.530;2023-02-01T05:27:20;2.91;91.42
66096;SHT31;53861;53.422;14.530;2023-02-01T05:29:47;2.93;91.42
66096;SHT31;53861;53.422;14.530;2023-02-01T05:32:14;2.94;91.41
66096;SHT31;53861;53.422;14.530;2023-02-01T05:34:41;2.93;91.47
66096;SHT31;53861;53.422;14.530;2023-02-01T05:37:09;2.91;91.25
66096;SHT31;53861;53.422;14.530;2023-02-01T05:39:41;2.87;91.66
66096;SHT31;53861;53.422;14.530;2023-02-01T05:42:10;2.87;91.37
66096;SHT31;53861;53.422;14.530;2023-02-01T05:44:37;2.90;90.97
66096;SHT31;53861;53.422;14.530;2023-02-01T05:47:05;2.90;91.00
66096;SHT31;53861;53.422;14.530;2023-02-01T05:49:32;2.87;90.88
66096;SHT31;53861;53.422;14.530;2023-02-01T05:51:59;2.88;92.01
66096;SHT31;53861;53.422;14.530;2023-02-01T05:54:26;2.81;91.67
66096;SHT31;53861;53.422;14.530;2023-02-01T05:56:57;2.86;91.98
66096;SHT31;53861;53.422;14.530;2023-02-01T05:59:24;2.96;91.94
66096;SHT31;53861;53.422;14.530;2023-02-01T06:01:51;3.07;91.59
66096;SHT31;53861;53.422;14.530;2023-02-01T06:04:21;3.17;91.38
66096;SHT31;53861;53.422;14.530;2023-02-01T06:06:48;3.28;90.92
66096;SHT31;53861;53.422;14.530;2023-02-01T06:09:20;3.28;90.73
66096;SHT31;53861;53.422;14.530;2023-02-01T06:11:48;3.41;89.77
66096;SHT31;53861;53.422;14.530;2023-02-01T06:14:20;3.43;89.56
66096;SHT31;53861;53.422;14.530;2023-02-01T06:16:47;3.31;89.72
66096;SHT31;53861;53.422;14.530;2023-02-01T06:19:14;3.38;89.70
66096;SHT31;53861;53.422;14.530;2023-02-01T06:21:41;3.39;90.00
66096;SHT31;53861;53.422;14.530;2023-02-01T06:24:08;3.45;89.62
66096;SHT31;53861;53.422;14.530;2023-02-01T06:26:36;3.58;90.01
66096;SHT31;53861;53.422;14.530;2023-02-01T06:29:04;3.68;89.31
66096;SHT31;53861;53.422;14.530;2023-02-01T06:31:35;3.71;88.80
66096;SHT31;53861;53.422;14.530;2023-02-01T06:34:02;3.73;89.16
66096;SHT31;53861;53.422;14.530;2023-02-01T06:36:32;3.72;89.08
66096;SHT31;53861;53.422;14.530;2023-02-01T06:39:05;3.78;88.67
66096;SHT31;53861;53.422;14.530;2023-02-01T06:41:31;3.78;88.88
66096;SHT31;53861;53.422;14.530;2023-02-01T06:44:00;3.87;88.52
66096;SHT31;53861;53.422;14.530;2023-02-01T06:46:27;4.00;87.97
66096;SHT31;53861;53.422;14.530;2023-02-01T06:48:58;3.99;88.00
66096;SHT31;53861;53.422;14.530;2023-02-01T06:51:30;4.00;87.78
66096;SHT31;53861;53.422;14.530;2023-02-01T06:53:57;4.00;88.06
66096;SHT31;53861;53.422;14.530;2023-02-01T06:56:25;3.99;88.25
66096;SHT31;53861;53.422;14.530;2023-02-01T06:58:52;4.00;88.52
66096;SHT31;53861;53.422;14.530;2023-02-01T07:01:19;4.04;88.07
66096;SHT31;53861;53.422;14.530;2023-02-01T07:03:47;4.03;88.08
66096;SHT31;53861;53.422;14.530;2023-02-01T07:06:16;4.00;88.35
66096;SHT31;53861;53.422;14.530;2023-02-01T07:08:44;4.02;88.31
66096;SHT31;53861;53.422;14.530;2023-02-01T07:11:12;3.96;89.48
66096;SHT31;53861;53.422;14.530;2023-02-01T07:13:41;3.99;88.49
66096;SHT31;53861;53.422;14.530;2023-02-01T07:16:10;3.96;88.30
66096;SHT31;53861;53.422;14.530;2023-02-01T07:18:37;3.99;88.44
66096;SHT31;53861;53.422;14.530;2023-02-01T07:21:04;3.99;88.71
66096;SHT31;53861;53.422;14.530;2023-02-01T07:23:33;4.07;87.80
66096;SHT31;53861;53.422;14.530;2023-02-01T07:26:00;4.07;87.81
66096;SHT31;53861;53.422;14.530;2023-02-01T07:28:30;4.10;88.25
66096;SHT31;53861;53.422;14.530;2023-02-01T07:31:01;4.13;88.04
66096;SHT31;53861;53.422;14.530;2023-02-01T07:33:29;4.11;88.42
66096;SHT31;53861;53.422;14.530;2023-02-01T07:35:56;4.07;88.95
66096;SHT31;53861;53.422;14.530;2023-02-01T07:38:23;4.09;89.10
66096;SHT31;53861;53.422;14.530;2023-02-01T07:40:51;4.14;88.47
66096;SHT31;53861;53.422;14.530;2023-02-01T07:43:26;4.21;88.33
66096;SHT31;53861;53.422;14.530;2023-02-01T07:45:53;4.27;88.31
66096;SHT31;53861;53.422;14.530;2023-02-01T07:48:23;4.33;88.48
66096;SHT31;53861;53.422;14.530;2023-02-01T07:50:57;4.36;89.01
66096;SHT31;53861;53.422;14.530;2023-02-01T07:53:25;4.45;88.81
66096;SHT31;53861;53.422;14.530;2023-02-01T07:56:08;4.50;88.37
66096;SHT31;53861;53.422;14.530;2023-02-01T07:58:40;4.61;88.06
66096;SHT31;53861;53.422;14.530;2023-02-01T08:01:13;4.60;88.22
66096;SHT31;53861;53.422;14.530;2023-02-01T08:03:48;4.64;87.74
66096;SHT31;53861;53.422;14.530;2023-02-01T08:06:30;4.58;88.12
66096;SHT31;53861;53.422;14.530;2023-02-01T08:08:58;4.60;88.34
66096;SHT31;53861;53.422;14.530;2023-02-01T08:11:26;4.71;87.56
66096;SHT31;53861;53.422;14.530;2023-02-01T08:13:55;4.84;87.33
66096;SHT31;53861;53.422;14.530;2023-02-01T08:16:23;4.85;88.06
66096;SHT31;53861;53.422;14.530;2023-02-01T08:18:52;5.00;87.17
66096;SHT31;53861;53.422;14.530;2023-02-01T08:21:20;5.16;86.46
66096;SHT31;53861;53.422;14.530;2023-02-01T08:23:48;5.27;85.90
66096;SHT31;53861;53.422;14.530;2023-02-01T08:26:16;5.27;86.05
66096;SHT31;53861;53.422;14.530;2023-02-01T08:28:46;5.20;85.90
66096;SHT31;53861;53.422;14.530;2023-02-01T08:31:14;5.15;85.78
66096;SHT31;53861;53.422;14.530;2023-02-01T08:33:41;5.15;85.54
66096;SHT31;53861;53.422;14.530;2023-02-01T08:36:09;5.05;86.25
66096;SHT31;53861;53.422;14.530;2023-02-01T08:38:39;5.04;85.42
66096;SHT31;53861;53.422;14.530;2023-02-01T08:41:12;5.09;86.01
66096;SHT31;53861;53.422;14.530;2023-02-01T08:43:40;4.92;87.25
66096;SHT31;53861;53.422;14.530;2023-02-01T08:46:13;4.89;86.57
66096;SHT31;53861;53.422;14.530;2023-02-01T08:48:40;4.85;86.25
66096;SHT31;53861;53.422;14.530;2023-02-01T08:51:09;4.81;87.81
66096;SHT31;53861;53.422;14.530;2023-02-01T08:53:37;4.75;87.09
66096;SHT31;53861;53.422;14.530;2023-02-01T08:56:05;4.71;87.02
66096;SHT31;53861;53.422;14.530;2023-02-01T08:58:32;4.65;87.18
66096;SHT31;53861;53.422;14.530;2023-02-01T09:01:02;4.57;87.44
66096;SHT31;53861;53.422;14.530;2023-02-01T09:03:31;4.62;87.64
66096;SHT31;53861;53.422;14.530;2023-02-01T09:06:02;4.50;88.44
66096;SHT31;53861;53.422;14.530;2023-02-01T09:08:29;4.58;87.76
66096;SHT31;53861;53.422;14.530;2023-02-01T09:10:58;4.61;86.22
66096;SHT31;53861;53.422;14.530;2023-02-01T09:13:27;4.85;86.14
66096;SHT31;53861;53.422;14.530;2023-02-01T09:15:54;5.09;84.97
66096;SHT31;53861;53.422;14.530;2023-02-01T09:18:22;4.98;86.19
66096;SHT31;53861;53.422;14.530;2023-02-01T09:20:50;5.13;85.11
66096;SHT31;53861;53.422;14.530;2023-02-01T09:23:17;5.19;83.94
66096;SHT31;53861;53.422;14.530;2023-02-01T09:25:45;5.20;85.68
66096;SHT31;53861;53.422;14.530;2023-02-01T09:28:14;5.11;84.77
66096;SHT31;53861;53.422;14.530;2023-02-01T09:30:41;5.11;85.18
66096;SHT31;53861;53.422;14.530;2023-02-01T09:33:08;5.02;85.81
66096;SHT31;53861;53.422;14.530;2023-02-01T09:35:35;5.09;84.94
66096;SHT31;53861;53.422;14.530;2023-02-01T09:38:03;5.29;84.61
66096;SHT31;53861;53.422;14.530;2023-02-01T09:40:30;5.42;83.47
66096;SHT31;53861;53.422;14.530;2023-02-01T09:43:07;5.37;84.69
66096;SHT31;53861;53.422;14.530;2023-02-01T09:45:38;5.63;83.47
66096;SHT31;53861;53.422;14.530;2023-02-01T09:48:11;5.74;84.12
66096;SHT31;53861;53.422;14.530;2023-02-01T09:50:41;5.49;84.04
66096;SHT31;53861;53.422;14.530;2023-02-01T09:53:11;5.73;83.54
66096;SHT31;53861;53.422;14.530;2023-02-01T09:55:40;5.77;84.52
66096;SHT31;53861;53.422;14.530;2023-02-01T09:58:08;6.11;83.04
66096;SHT31;53861;53.422;14.530;2023-02-01T10:00:39;6.45;82.96
66096;SHT31;53861;53.422;14.530;2023-02-01T10:03:08;6.41;81.31
66096;SHT31;53861;53.422;14.530;2023-02-01T10:05:46;6.05;82.20
66096;SHT31;53861;53.422;14.530;2023-02-01T10:08:19;5.95;82.20
66096;SHT31;53861;53.422;14.530;2023-02-01T10:10:51;5.70;84.04
66096;SHT31;53861;53.422;14.530;2023-02-01T10:16:11;5.37;84.03
66096;SHT31;53861;53.422;14.530;2023-02-01T10:18:44;5.20;83.78
66096;SHT31;53861;53.422;14.530;2023-02-01T10:21:16;5.22;84.73
66096;SHT31;53861;53.422;14.530;2023-02-01T10:24:02;5.20;84.53
66096;SHT31;53861;53.422;14.530;2023-02-01T10:26:31;5.32;84.02
66096;SHT31;53861;53.422;14.530;2023-02-01T10:29:01;5.50;83.76
66096;SHT31;53861;53.422;14.530;2023-02-01T10:31:29;5.44;84.78
66096;SHT31;53861;53.422;14.530;2023-02-01T10:33:57;5.49;84.92
66096;SHT31;53861;53.422;14.530;2023-02-01T10:36:26;5.73;84.56
66096;SHT31;53861;53.422;14.530;2023-02-01T10:38:54;6.07;83.36
66096;SHT31;53861;53.422;14.530;2023-02-01T10:41:23;6.29;83.76
66096;SHT31;53861;53.422;14.530;2023-02-01T10:43:53;6.36;81.33
66096;SHT31;53861;53.422;14.530;2023-02-01T10:46:20;6.21;81.75
66096;SHT31;53861;53.422;14.530;2023-02-01T10:48:47;6.15;81.74
66096;SHT31;53861;53.422;14.530;2023-02-01T10:51:16;5.88;82.54
66096;SHT31;53861;53.422;14.530;2023-02-01T10:53:47;5.75;83.30
66096;SHT31;53861;53.422;14.530;2023-02-01T10:56:21;5.67;83.84
66096;SHT31;53861;53.422;14.530;2023-02-01T10:58:49;5.75;84.08
66096;SHT31;53861;53.422;14.530;2023-02-01T11:01:19;5.94;83.92
66096;SHT31;53861;53.422;14.530;2023-02-01T11:03:52;6.12;82.65
66096;SHT31;53861;53.422;14.530;2023-02-01T11:06:21;6.22;82.94
66096;SHT31;53861;53.422;14.530;2023-02-01T11:08:50;5.97;82.42
66096;SHT31;53861;53.422;14.530;2023-02-01T11:11:17;5.83;84.59
66096;SHT31;53861;53.422;14.530;2023-02-01T11:13:44;5.75;84.34
66096;SHT31;53861;53.422;14.530;2023-02-01T11:16:19;5.61;84.17
66096;SHT31;53861;53.422;14.530;2023-02-01T11:18:46;5.57;85.83
66096;SHT31;53861;53.422;14.530;2023-02-01T11:21:19;5.46;86.30
66096;SHT31;53861;53.422;14.530;2023-02-01T11:23:47;5.54;85.72
66096;SHT31;53861;53.422;14.530;2023-02-01T11:26:14;5.51;85.51
66096;SHT31;53861;53.422;14.530;2023-02-01T11:28:50;5.37;86.76
66096;SHT31;53861;53.422;14.530;2023-02-01T11:31:19;5.37;86.41
66096;SHT31;53861;53.422;14.530;2023-02-01T11:33:48;5.33;86.16
66096;SHT31;53861;53.422;14.530;2023-02-01T11:36:16;5.39;85.98
66096;SHT31;53861;53.422;14.530;2023-02-01T11:38:45;5.32;86.28
66096;SHT31;53861;53.422;14.530;2023-02-01T11:41:13;5.27;87.07
66096;SHT31;53861;53.422;14.530;2023-02-01T11:43:50;5.15;88.26
66096;SHT31;53861;53.422;14.530;2023-02-01T11:46:19;5.16;88.01
66096;SHT31;53861;53.422;14.530;2023-02-01T11:48:50;5.35;87.46
66096;SHT31;53861;53.422;14.530;2023-02-01T11:51:21;5.40;87.64
66096;SHT31;53861;53.422;14.530;2023-02-01T11:54:01;5.32;87.75
66096;SHT31;53861;53.422;14.530;2023-02-01T11:56:32;5.39;87.12
66096;SHT31;53861;53.422;14.530;2023-02-01T11:59:12;5.43;86.36
66096;SHT31;53861;53.422;14.530;2023-02-01T12:04:45;5.37;85.36
66096;SHT31;53861;53.422;14.530;2023-02-01T12:07:19;5.32;84.60
66096;SHT31;53861;53.422;14.530;2023-02-01T12:09:54;5.22;84.21
66096;SHT31;53861;53.422;14.530;2023-02-01T12:12:24;5.15;84.98
66096;SHT31;53861;53.422;14.530;2023-02-01T12:17:46;5.02;85.63
66096;SHT31;53861;53.422;14.530;2023-02-01T12:20:23;4.89;86.47
66096;SHT31;53861;53.422;14.530;2023-02-01T12:22:55;4.72;87.70
66096;SHT31;53861;53.422;14.530;2023-02-01T12:25:33;4.45;88.30
66096;SHT31;53861;53.422;14.530;2023-02-01T12:28:21;4.48;88.45
66096;SHT31;53861;53.422;14.530;2023-02-01T12:31:00;4.44;89.18
66096;SHT31;53861;53.422;14.530;2023-02-01T12:33:37;4.23;89.31
66096;SHT31;53861;53.422;14.530;2023-02-01T12:36:12;4.27;89.43
66096;SHT31;53861;53.422;14.530;2023-02-01T12:38:46;4.34;89.48
66096;SHT31;53861;53.422;14.530;2023-02-01T12:41:28;4.34;90.86
66096;SHT31;53861;53.422;14.530;2023-02-01T12:43:59;4.32;89.89
66096;SHT31;53861;53.422;14.530;2023-02-01T12:46:27;4.38;89.89
66096;SHT31;53861;53.422;14.530;2023-02-01T12:48:56;4.25;89.21
66096;SHT31;53861;53.422;14.530;2023-02-01T12:51:26;4.33;89.73
66096;SHT31;53861;53.422;14.530;2023-02-01T12:53:55;4.38;89.19
66096;SHT31;53861;53.422;14.530;2023-02-01T12:56:28;4.47;89.31
66096;SHT31;53861;53.422;14.530;2023-02-01T12:58:56;4.58;89.11
66096;SHT31;53861;53.422;14.530;2023-02-01T13:01:27;4.65;89.30
66096;SHT31;53861;53.422;14.530;2023-02-01T13:03:57;4.91;89.88
66096;SHT31;53861;53.422;14.530;2023-02-01T13:06:28;4.98;89.87
66096;SHT31;53861;53.422;14.530;2023-02-01T13:08:57;5.09;89.46
66096;SHT31;53861;53.422;14.530;2023-02-01T13:11:26;5.15;88.68
66096;SHT31;53861;53.422;14.530;2023-02-01T13:13:56;5.12;89.86
66096;SHT31;53861;53.422;14.530;2023-02-01T13:16:26;5.09;89.17
66096;SHT31;53861;53.422;14.530;2023-02-01T13:21:41;5.04;89.20
66096;SHT31;53861;53.422;14.530;2023-02-01T13:24:26;4.92;89.06
66096;SHT31;53861;53.422;14.530;2023-02-01T13:26:54;4.86;89.15
66096;SHT31;53861;53.422;14.530;2023-02-01T13:29:22;4.74;89.78
66096;SHT31;53861;53.422;14.530;2023-02-01T13:31:54;4.55;89.46
66096;SHT31;53861;53.422;14.530;2023-02-01T13:37:12;4.30;89.10
66096;SHT31;53861;53.422;14.530;2023-02-01T13:39:48;4.13;88.77
66096;SHT31;53861;53.422;14.530;2023-02-01T13:42:18;3.92;88.66
66096;SHT31;53861;53.422;14.530;2023-02-01T13:44:48;3.97;89.81
66096;SHT31;53861;53.422;14.530;2023-02-01T13:47:25;3.92;89.99
66096;SHT31;53861;53.422;14.530;2023-02-01T13:49:54;4.47;88.27
66096;SHT31;53861;53.422;14.530;2023-02-01T13:52:27;5.16;89.67
66096;SHT31;53861;53.422;14.530;2023-02-01T13:55:02;5.19;88.34
66096;SHT31;53861;53.422;14.530;2023-02-01T13:57:34;5.29;88.19
66096;SHT31;53861;53.422;14.530;2023-02-01T14:00:06;5.33;88.14
66096;SHT31;53861;53.422;14.530;2023-02-01T14:08:14;4.24;88.33
66096;SHT31;53861;53.422;14.530;2023-02-01T14:10:53;4.07;90.73
66096;SHT31;53861;53.422;14.530;2023-02-01T14:13:26;3.92;89.69
66096;SHT31;53861;53.422;14.530;2023-02-01T14:18:49;3.78;91.99
66096;SHT31;53861;53.422;14.530;2023-02-01T14:21:18;3.62;90.79
66096;SHT31;53861;53.422;14.530;2023-02-01T14:23:47;3.66;92.12
66096;SHT31;53861;53.422;14.530;2023-02-01T14:26:21;3.72;91.26
66096;SHT31;53861;53.422;14.530;2023-02-01T14:28:51;3.76;91.30
66096;SHT31;53861;53.422;14.530;2023-02-01T14:31:33;3.69;92.14
66096;SHT31;53861;53.422;14.530;2023-02-01T14:34:02;3.76;91.90
66096;SHT31;53861;53.422;14.530;2023-02-01T14:36:42;3.76;90.91
66096;SHT31;53861;53.422;14.530;2023-02-01T14:39:21;3.86;91.26
66096;SHT31;53861;53.422;14.530;2023-02-01T14:41:51;3.94;91.11
66096;SHT31;53861;53.422;14.530;2023-02-01T14:44:23;4.00;90.85
66096;SHT31;53861;53.422;14.530;2023-02-01T14:49:37;4.07;90.81
66096;SHT31;53861;53.422;14.530;2023-02-01T14:52:06;4.20;90.83
66096;SHT31;53861;53.422;14.530;2023-02-01T14:54:37;4.18;90.93
66096;SHT31;53861;53.422;14.530;2023-02-01T14:57:09;4.27;90.40
66096;SHT31;53861;53.422;14.530;2023-02-01T14:59:39;4.34;90.45
66096;SHT31;53861;53.422;14.530;2023-02-01T15:02:10;4.30;90.94
66096;SHT31;53861;53.422;14.530;2023-02-01T15:04:42;4.40;90.75
66096;SHT31;53861;53.422;14.530;2023-02-01T15:07:11;4.43;91.03
66096;SHT31;53861;53.422;14.530;2023-02-01T15:09:42;4.50;91.00
66096;SHT31;53861;53.422;14.530;2023-02-01T15:12:14;4.51;90.00
66096;SHT31;53861;53.422;14.530;2023-02-01T15:14:44;4.50;90.57
66096;SHT31;53861;53.422;14.530;2023-02-01T15:17:18;4.50;90.57
66096;SHT31;53861;53.422;14.530;2023-02-01T15:19:52;4.44;90.33
66096;SHT31;53861;53.422;14.530;2023-02-01T15:22:19;4.43;90.07
66096;SHT31;53861;53.422;14.530;2023-02-01T15:24:53;4.41;90.71
66096;SHT31;53861;53.422;14.530;2023-02-01T15:27:20;4.40;90.69
66096;SHT31;53861;53.422;14.530;2023-02-01T15:29:47;4.36;91.02
66096;SHT31;53861;53.422;14.530;2023-02-01T15:32:28;4.44;90.31
66096;SHT31;53861;53.422;14.530;2023-02-01T15:34:55;4.47;89.86
66096;SHT31;53861;53.422;14.530;2023-02-01T15:37:22;4.38;90.34
66096;SHT31;53861;53.422;14.530;2023-02-01T15:40:19;4.43;90.19
66096;SHT31;53861;53.422;14.530;2023-02-01T15:42:49;4.37;90.62
66096;SHT31;53861;53.422;14.530;2023-02-01T15:45:18;4.44;90.63
66096;SHT31;53861;53.422;14.530;2023-02-01T15:47:46;4.37;90.72
66096;SHT31;53861;53.422;14.530;2023-02-01T15:50:15;4.50;90.15
66096;SHT31;53861;53.422;14.530;2023-02-01T15:52:42;4.44;90.31
66096;SHT31;53861;53.422;14.530;2023-02-01T15:55:18;4.44;90.12
66096;SHT31;53861;53.422;14.530;2023-02-01T15:57:46;4.48;91.01
66096;SHT31;53861;53.422;14.530;2023-02-01T16:00:18;4.50;90.91
66096;SHT31;53861;53.422;14.530;2023-02-01T16:02:51;4.47;91.78
66096;SHT31;53861;53.422;14.530;2023-02-01T16:08:09;4.47;91.79
66096;SHT31;53861;53.422;14.530;2023-02-01T16:10:39;4.58;91.41
66096;SHT31;53861;53.422;14.530;2023-02-01T16:13:07;4.53;91.40
66096;SHT31;53861;53.422;14.530;2023-02-01T16:15:33;4.41;91.89
66096;SHT31;53861;53.422;14.530;2023-02-01T16:18:00;4.51;91.75
66096;SHT31;53861;53.422;14.530;2023-02-01T16:20:27;4.47;90.74
66096;SHT31;53861;53.422;14.530;2023-02-01T16:22:55;4.45;90.58
66096;SHT31;53861;53.422;14.530;2023-02-01T16:25:22;4.43;91.44